createdAt,value
2018-10-03T00:01:11.236Z,8.50
2018-10-03T00:03:38.843Z,14.43
2018-10-03T00:06:06.458Z,8.47
2018-10-03T00:08:34.191Z,9.13
2018-10-03T00:11:01.760Z,17.73
2018-10-03T00:13:29.378Z,7.87
2018-10-03T00:15:57.092Z,4.20
2018-10-03T00:18:24.696Z,10.67
2018-10-03T00:20:52.279Z,13.17
2018-10-03T00:23:19.897Z,10.77
2018-10-03T00:25:47.479Z,10.23
2018-10-03T00:28:15.121Z,13.30
2018-10-03T00:30:42.723Z,10.53
2018-10-03T00:33:10.327Z,8.93
2018-10-03T00:35:37.933Z,10.63
2018-10-03T00:38:05.589Z,13.47
2018-10-03T00:40:33.220Z,12.73
2018-10-03T00:43:00.934Z,13.33
2018-10-03T00:45:28.548Z,11.27
2018-10-03T00:47:56.202Z,8.70
2018-10-03T00:50:23.751Z,10.33
2018-10-03T00:52:51.420Z,15.60
2018-10-03T00:55:18.988Z,6.37
2018-10-03T00:57:46.640Z,9.93
2018-10-03T01:00:14.331Z,22.07
2018-10-03T01:02:41.974Z,13.13
2018-10-03T01:05:09.610Z,10.13
2018-10-03T01:07:37.216Z,9.83
2018-10-03T01:10:04.876Z,12.90
2018-10-03T01:12:32.501Z,6.60
2018-10-03T01:15:00.194Z,7.23
2018-10-03T01:17:27.791Z,17.30
2018-10-03T01:19:55.312Z,11.13
2018-10-03T01:22:22.949Z,16.43
2018-10-03T01:24:50.629Z,14.20
2018-10-03T01:27:18.220Z,10.17
2018-10-03T01:29:45.839Z,8.13
2018-10-03T01:32:13.452Z,10.03
2018-10-03T01:34:40.990Z,13.80
2018-10-03T01:37:08.621Z,11.70
2018-10-03T01:39:36.187Z,15.93
2018-10-03T01:42:03.893Z,8.80
2018-10-03T01:44:31.591Z,12.23
2018-10-03T01:46:59.239Z,6.80
2018-10-03T01:49:26.877Z,11.87
2018-10-03T01:51:54.425Z,10.80
2018-10-03T01:54:22.026Z,12.30
2018-10-03T01:56:49.672Z,8.63
2018-10-03T01:59:17.332Z,13.77
2018-10-03T02:01:44.908Z,8.57
2018-10-03T02:04:12.516Z,12.00
2018-10-03T02:06:40.138Z,10.90
2018-10-03T02:09:07.746Z,16.37
2018-10-03T02:11:35.392Z,9.60
2018-10-03T02:14:03.020Z,11.50
2018-10-03T02:16:30.664Z,13.00
2018-10-03T02:18:58.282Z,10.10
2018-10-03T02:21:25.899Z,9.27
2018-10-03T02:23:53.510Z,7.20
2018-10-03T02:26:21.137Z,10.10
2018-10-03T02:28:48.735Z,8.47
2018-10-03T02:31:16.315Z,10.67
2018-10-03T02:33:43.933Z,8.20
2018-10-03T02:36:11.573Z,15.53
2018-10-03T02:38:39.222Z,12.00
2018-10-03T02:41:06.853Z,9.13
2018-10-03T02:43:34.515Z,7.50
2018-10-03T02:46:02.160Z,10.63
2018-10-03T02:48:29.768Z,8.70
2018-10-03T02:50:57.440Z,7.50
2018-10-03T02:53:25.072Z,14.27
2018-10-03T02:55:52.767Z,9.10
2018-10-03T02:58:20.377Z,10.87
2018-10-03T03:00:47.942Z,6.57
2018-10-03T03:03:15.584Z,7.57
2018-10-03T03:05:43.159Z,10.67
2018-10-03T03:08:10.941Z,6.50
2018-10-03T03:10:38.621Z,16.97
2018-10-03T03:13:06.259Z,11.57
2018-10-03T03:15:33.844Z,11.13
2018-10-03T03:18:01.607Z,9.67
2018-10-03T03:20:29.240Z,16.00
2018-10-03T03:22:56.894Z,7.77
2018-10-03T03:25:24.499Z,9.33
2018-10-03T03:27:52.098Z,12.63
2018-10-03T03:30:19.709Z,9.73
2018-10-03T03:32:47.312Z,6.07
2018-10-03T03:35:14.917Z,11.90
2018-10-03T03:37:42.499Z,7.20
2018-10-03T03:40:10.043Z,16.00
2018-10-03T03:42:37.731Z,10.57
2018-10-03T03:45:05.365Z,9.27
2018-10-03T03:47:33.091Z,10.73
2018-10-03T03:50:00.652Z,7.87
2018-10-03T03:52:28.235Z,9.80
2018-10-03T03:54:55.845Z,9.97
2018-10-03T03:57:23.440Z,11.10
2018-10-03T03:59:51.024Z,8.20
2018-10-03T04:02:18.648Z,8.77
2018-10-03T04:04:46.277Z,12.37
2018-10-03T04:07:13.891Z,8.80
2018-10-03T04:09:41.492Z,7.70
2018-10-03T04:12:09.111Z,12.43
2018-10-03T04:14:36.769Z,7.67
2018-10-03T04:17:04.316Z,6.50
2018-10-03T04:19:31.926Z,6.83
2018-10-03T04:21:59.576Z,12.27
2018-10-03T04:24:27.153Z,9.03
2018-10-03T04:26:54.731Z,6.63
2018-10-03T04:29:22.411Z,11.43
2018-10-03T04:31:50.039Z,9.80
2018-10-03T04:34:17.642Z,10.57
2018-10-03T04:36:45.281Z,8.63
2018-10-03T04:39:12.874Z,7.90
2018-10-03T04:41:40.514Z,10.63
2018-10-03T04:44:08.091Z,5.67
2018-10-03T04:46:35.747Z,14.07
2018-10-03T04:49:03.437Z,10.63
2018-10-03T04:51:30.993Z,9.47
2018-10-03T04:53:58.688Z,10.77
2018-10-03T04:56:26.271Z,9.93
2018-10-03T04:58:53.866Z,8.03
2018-10-03T05:01:21.488Z,10.17
2018-10-03T05:03:49.079Z,5.80
2018-10-03T05:06:16.684Z,10.50
2018-10-03T05:08:44.343Z,6.40
2018-10-03T05:11:11.990Z,9.80
2018-10-03T05:13:39.646Z,4.13
2018-10-03T05:16:07.195Z,8.47
2018-10-03T05:18:34.817Z,10.10
2018-10-03T05:21:02.449Z,9.00
2018-10-03T05:23:30.042Z,8.13
2018-10-03T05:25:57.645Z,7.67
2018-10-03T05:28:25.267Z,4.77
2018-10-03T05:30:52.928Z,5.43
2018-10-03T05:33:20.582Z,8.47
2018-10-03T05:35:48.215Z,7.33
2018-10-03T05:38:15.948Z,9.03
2018-10-03T05:40:43.573Z,5.43
2018-10-03T05:43:11.186Z,9.47
2018-10-03T05:45:38.837Z,8.23
2018-10-03T05:48:06.480Z,4.13
2018-10-03T05:50:34.196Z,7.70
2018-10-03T05:53:01.799Z,10.93
2018-10-03T05:55:29.404Z,7.43
2018-10-03T05:57:57.061Z,9.70
2018-10-03T06:00:24.692Z,8.80
2018-10-03T06:02:52.431Z,6.20
2018-10-03T06:05:19.956Z,6.00
2018-10-03T06:07:47.551Z,5.43
2018-10-03T06:10:15.187Z,7.10
2018-10-03T06:12:42.763Z,7.87
2018-10-03T06:15:10.355Z,5.87
2018-10-03T06:17:37.949Z,5.27
2018-10-03T06:20:06.536Z,7.70
2018-10-03T06:22:34.173Z,7.33
2018-10-03T06:25:01.871Z,6.20
2018-10-03T06:27:29.594Z,4.80
2018-10-03T06:29:57.476Z,5.07
2018-10-03T06:32:25.060Z,6.80
2018-10-03T06:34:52.656Z,7.53
2018-10-03T06:37:20.262Z,6.33
2018-10-03T06:39:47.827Z,7.80
2018-10-03T06:42:15.455Z,6.20
2018-10-03T06:44:43.080Z,7.80
2018-10-03T06:47:10.809Z,5.03
2018-10-03T06:49:38.484Z,4.10
2018-10-03T06:52:06.191Z,5.00
2018-10-03T06:54:33.840Z,5.50
2018-10-03T06:57:01.431Z,4.20
2018-10-03T06:59:29.093Z,6.07
2018-10-03T07:01:56.696Z,5.43
2018-10-03T07:04:24.329Z,5.50
2018-10-03T07:06:51.970Z,7.07
2018-10-03T07:09:19.583Z,9.47
2018-10-03T07:11:47.221Z,6.03
2018-10-03T07:14:14.901Z,4.67
2018-10-03T07:16:42.472Z,4.77
2018-10-03T07:19:10.196Z,4.33
2018-10-03T07:21:37.886Z,3.00
2018-10-03T07:24:05.470Z,3.20
2018-10-03T07:26:33.101Z,2.97
2018-10-03T07:29:00.744Z,4.17
2018-10-03T07:31:28.324Z,6.13
2018-10-03T07:33:55.948Z,5.07
2018-10-03T07:36:23.611Z,3.37
2018-10-03T07:38:51.200Z,6.53
2018-10-03T07:41:18.851Z,5.70
2018-10-03T07:43:46.412Z,5.33
2018-10-03T07:46:14.041Z,5.57
2018-10-03T07:48:41.712Z,2.33
2018-10-03T07:51:09.376Z,4.77
2018-10-03T07:53:37.041Z,5.17
2018-10-03T07:56:04.695Z,3.40
2018-10-03T07:58:32.287Z,2.47
2018-10-03T08:00:59.928Z,5.97
2018-10-03T08:03:27.544Z,3.13
2018-10-03T08:05:55.117Z,7.00
2018-10-03T08:08:22.740Z,4.80
2018-10-03T08:10:50.369Z,3.30
2018-10-03T08:13:18.080Z,3.63
2018-10-03T08:15:45.673Z,4.63
2018-10-03T08:18:13.350Z,3.90
2018-10-03T08:20:40.974Z,3.57
2018-10-03T08:23:08.622Z,3.37
2018-10-03T08:25:36.274Z,4.93
2018-10-03T08:28:03.879Z,4.50
2018-10-03T08:30:31.548Z,2.83
2018-10-03T08:32:59.207Z,8.93
2018-10-03T08:35:26.748Z,4.50
2018-10-03T08:37:54.412Z,6.73
2018-10-03T08:42:56.570Z,2.97
2018-10-03T08:45:24.293Z,4.23
2018-10-03T08:47:51.916Z,5.03
2018-10-03T08:50:19.534Z,3.90
2018-10-03T08:52:47.137Z,3.27
2018-10-03T08:55:14.769Z,4.73
2018-10-03T08:57:42.693Z,3.10
2018-10-03T09:00:10.755Z,4.00
2018-10-03T09:02:38.407Z,3.87
2018-10-03T09:05:06.153Z,4.53
2018-10-03T09:07:36.435Z,3.30
2018-10-03T09:10:04.039Z,3.00
2018-10-03T09:12:31.680Z,2.73
2018-10-03T09:14:59.263Z,3.00
2018-10-03T09:17:26.842Z,3.53
2018-10-03T09:19:54.427Z,2.70
2018-10-03T09:22:22.340Z,5.47
2018-10-03T09:24:50.061Z,2.10
2018-10-03T09:27:17.698Z,3.30
2018-10-03T09:29:45.301Z,2.60
2018-10-03T09:32:12.904Z,11.40
2018-10-03T09:34:40.508Z,7.87
2018-10-03T09:37:08.089Z,5.43
2018-10-03T09:39:35.742Z,4.40
2018-10-03T09:42:03.279Z,5.23
2018-10-03T09:44:30.941Z,3.70
2018-10-03T09:46:58.529Z,3.30
2018-10-03T09:49:26.139Z,3.20
2018-10-03T09:51:53.818Z,5.27
2018-10-03T09:54:21.443Z,2.63
2018-10-03T09:56:49.044Z,2.70
2018-10-03T09:59:16.676Z,4.87
2018-10-03T10:01:44.306Z,2.10
2018-10-03T10:04:11.885Z,6.53
2018-10-03T10:06:39.581Z,2.30
2018-10-03T10:09:08.649Z,2.70
2018-10-03T10:11:36.338Z,7.00
2018-10-03T10:14:03.856Z,3.47
2018-10-03T10:16:31.544Z,3.03
2018-10-03T10:18:59.220Z,3.60
2018-10-03T10:21:26.860Z,2.27
2018-10-03T10:23:54.481Z,7.37
2018-10-03T10:26:22.083Z,5.40
2018-10-03T10:28:49.665Z,2.80
2018-10-03T10:31:17.275Z,4.73
2018-10-03T10:33:44.886Z,2.40
2018-10-03T10:36:12.506Z,8.03
2018-10-03T10:38:40.177Z,4.63
2018-10-03T10:41:07.800Z,3.20
2018-10-03T10:43:35.468Z,3.57
2018-10-03T10:46:03.053Z,10.83
2018-10-03T10:48:30.747Z,3.73
2018-10-03T10:50:58.476Z,4.43
2018-10-03T10:53:26.040Z,3.93
2018-10-03T10:55:53.697Z,4.20
2018-10-03T10:58:21.303Z,4.00
2018-10-03T11:00:49.567Z,2.60
2018-10-03T11:03:17.266Z,5.20
2018-10-03T11:05:44.905Z,3.83
2018-10-03T11:08:12.498Z,4.30
2018-10-03T11:10:40.089Z,2.50
2018-10-03T11:13:07.817Z,7.57
2018-10-03T11:15:35.444Z,4.20
2018-10-03T11:18:03.097Z,6.27
2018-10-03T11:20:30.696Z,2.60
2018-10-03T11:22:58.348Z,4.73
2018-10-03T11:25:25.952Z,2.43
2018-10-03T11:27:53.603Z,3.23
2018-10-03T11:30:21.207Z,3.10
2018-10-03T11:32:48.775Z,2.13
2018-10-03T11:35:16.369Z,5.70
2018-10-03T11:37:43.997Z,3.17
2018-10-03T11:40:11.637Z,2.73
2018-10-03T11:42:39.227Z,3.53
2018-10-03T11:45:06.852Z,5.80
2018-10-03T11:47:34.460Z,3.10
2018-10-03T11:50:02.146Z,2.23
2018-10-03T11:52:29.817Z,2.93
2018-10-03T11:54:57.477Z,2.07
2018-10-03T11:57:25.132Z,3.97
2018-10-03T11:59:52.823Z,1.57
2018-10-03T12:02:20.389Z,2.80
2018-10-03T12:04:48.086Z,2.27
2018-10-03T12:07:15.696Z,2.53
2018-10-03T12:09:43.313Z,4.23
2018-10-03T12:12:10.905Z,3.37
2018-10-03T12:14:38.531Z,3.97
2018-10-03T12:17:06.187Z,2.10
2018-10-03T12:19:33.737Z,2.53
2018-10-03T12:22:01.396Z,4.63
2018-10-03T12:24:29.037Z,2.70
2018-10-03T12:26:56.626Z,1.77
2018-10-03T12:29:24.223Z,3.73
2018-10-03T12:31:51.800Z,2.90
2018-10-03T12:34:19.351Z,1.93
2018-10-03T12:36:46.941Z,3.50
2018-10-03T12:39:14.522Z,2.20
2018-10-03T12:41:42.161Z,2.80
2018-10-03T12:44:09.776Z,3.63
2018-10-03T12:46:38.093Z,5.40
2018-10-03T12:49:05.714Z,2.00
2018-10-03T12:51:33.340Z,2.60
2018-10-03T12:54:00.968Z,4.37
2018-10-03T12:56:28.639Z,5.90
2018-10-03T12:58:56.259Z,1.50
2018-10-03T13:01:24.192Z,6.10
2018-10-03T13:03:51.796Z,3.23
2018-10-03T13:06:19.421Z,2.80
2018-10-03T13:08:47.030Z,1.83
2018-10-03T13:11:14.643Z,3.67
2018-10-03T13:13:42.305Z,3.13
2018-10-03T13:16:10.163Z,3.70
2018-10-03T13:18:37.788Z,3.40
2018-10-03T13:21:05.455Z,3.10
2018-10-03T13:23:33.112Z,2.20
2018-10-03T13:26:00.752Z,3.70
2018-10-03T13:28:28.345Z,2.90
2018-10-03T13:30:55.930Z,2.13
2018-10-03T13:33:23.556Z,4.13
2018-10-03T13:35:51.358Z,4.23
2018-10-03T13:38:18.973Z,3.93
2018-10-03T13:40:46.673Z,2.67
2018-10-03T13:43:14.239Z,2.97
2018-10-03T13:45:41.931Z,2.67
2018-10-03T13:48:09.556Z,4.37
2018-10-03T13:50:37.256Z,4.00
2018-10-03T13:53:04.873Z,3.47
2018-10-03T13:55:32.532Z,2.33
2018-10-03T13:58:00.235Z,3.90
2018-10-03T14:00:28.184Z,3.63
2018-10-03T14:02:55.828Z,5.00
2018-10-03T14:05:23.380Z,2.13
2018-10-03T14:07:51.294Z,3.93
2018-10-03T14:10:18.921Z,4.30
2018-10-03T14:12:46.515Z,4.63
2018-10-03T14:15:14.133Z,5.67
2018-10-03T14:17:41.779Z,4.23
2018-10-03T14:20:09.604Z,2.67
2018-10-03T14:22:37.284Z,2.70
2018-10-03T14:25:05.093Z,3.20
2018-10-03T14:27:32.662Z,3.40
2018-10-03T14:30:00.353Z,1.73
2018-10-03T14:32:27.976Z,2.73
2018-10-03T14:34:55.602Z,5.90
2018-10-03T14:37:23.267Z,2.03
2018-10-03T14:39:50.935Z,4.93
2018-10-03T14:42:18.562Z,3.77
2018-10-03T14:44:46.200Z,2.50
2018-10-03T14:47:13.812Z,1.83
2018-10-03T14:49:41.434Z,5.53
2018-10-03T14:52:09.083Z,2.13
2018-10-03T14:54:36.710Z,2.07
2018-10-03T14:57:04.325Z,2.90
2018-10-03T14:59:31.924Z,5.67
2018-10-03T15:01:59.568Z,4.03
2018-10-03T15:04:27.187Z,2.20
2018-10-03T15:06:54.768Z,2.40
2018-10-03T15:09:22.406Z,3.83
2018-10-03T15:11:50.044Z,3.73
2018-10-03T15:14:17.656Z,5.03
2018-10-03T15:16:45.311Z,3.60
2018-10-03T15:19:12.926Z,2.13
2018-10-03T15:21:40.484Z,1.47
2018-10-03T15:24:08.169Z,3.47
2018-10-03T15:26:35.841Z,3.17
2018-10-03T15:29:03.440Z,5.67
2018-10-03T15:31:31.011Z,2.27
2018-10-03T15:33:58.683Z,2.33
2018-10-03T15:36:26.419Z,4.80
2018-10-03T15:38:54.041Z,2.93
2018-10-03T15:41:21.747Z,2.67
2018-10-03T15:43:49.393Z,4.43
2018-10-03T15:46:17.029Z,3.80
2018-10-03T15:48:44.786Z,3.57
2018-10-03T15:51:12.581Z,2.93
2018-10-03T15:53:40.211Z,3.90
2018-10-03T15:56:07.792Z,4.43
2018-10-03T15:58:35.399Z,3.80
2018-10-03T16:01:02.960Z,3.50
2018-10-03T16:03:30.574Z,3.77
2018-10-03T16:05:58.182Z,8.10
2018-10-03T16:08:25.810Z,3.33
2018-10-03T16:10:53.476Z,3.70
2018-10-03T16:13:21.092Z,4.83
2018-10-03T16:15:48.695Z,4.60
2018-10-03T16:18:16.341Z,3.00
2018-10-03T16:20:44.002Z,3.40
2018-10-03T16:23:11.673Z,2.97
2018-10-03T16:25:39.361Z,2.57
2018-10-03T16:28:06.939Z,1.60
2018-10-03T16:30:34.553Z,1.83
2018-10-03T16:33:02.227Z,2.43
2018-10-03T16:35:29.922Z,2.47
2018-10-03T16:37:57.537Z,1.73
2018-10-03T16:40:25.168Z,4.93
2018-10-03T16:42:52.816Z,2.13
2018-10-03T16:45:20.454Z,2.27
2018-10-03T16:47:48.154Z,3.70
2018-10-03T16:50:15.775Z,2.03
2018-10-03T16:52:43.399Z,1.90
2018-10-03T16:55:11.064Z,2.90
2018-10-03T16:57:38.700Z,2.00
2018-10-03T17:00:06.434Z,3.40
2018-10-03T17:02:34.000Z,2.47
2018-10-03T17:05:01.737Z,1.87
2018-10-03T17:07:29.316Z,2.30
2018-10-03T17:09:56.968Z,3.83
2018-10-03T17:12:24.619Z,2.53
2018-10-03T17:14:52.324Z,3.13
2018-10-03T17:17:19.927Z,2.40
2018-10-03T17:19:47.592Z,2.57
2018-10-03T17:22:15.253Z,2.57
2018-10-03T17:24:42.868Z,1.67
2018-10-03T17:27:10.498Z,4.67
2018-10-03T17:29:38.060Z,2.13
2018-10-03T17:32:05.762Z,3.10
2018-10-03T17:34:33.398Z,2.87
2018-10-03T17:37:01.004Z,2.83
2018-10-03T17:39:28.879Z,3.57
2018-10-03T17:41:56.594Z,1.40
2018-10-03T17:44:24.495Z,3.63
2018-10-03T17:46:53.482Z,3.03
2018-10-03T17:49:21.131Z,3.17
2018-10-03T17:51:48.741Z,2.97
2018-10-03T17:54:16.407Z,1.30
2018-10-03T17:56:44.103Z,2.17
2018-10-03T17:59:11.804Z,2.30
2018-10-03T18:01:48.299Z,3.83
2018-10-03T18:04:15.922Z,3.30
2018-10-03T18:06:43.574Z,3.03
2018-10-03T18:09:11.823Z,3.43
2018-10-03T18:11:39.503Z,2.43
2018-10-03T18:14:07.365Z,4.13
2018-10-03T18:16:35.052Z,3.17
2018-10-03T18:19:02.660Z,2.43
2018-10-03T18:21:30.215Z,3.33
2018-10-03T18:23:57.835Z,2.23
2018-10-03T18:26:25.423Z,4.00
2018-10-03T18:28:53.076Z,2.70
2018-10-03T18:31:20.757Z,2.73
2018-10-03T18:33:48.293Z,2.80
2018-10-03T18:36:15.900Z,2.63
2018-10-03T18:38:43.561Z,1.77
2018-10-03T18:41:11.194Z,3.10
2018-10-03T18:43:38.817Z,2.30
2018-10-03T18:46:06.417Z,4.43
2018-10-03T18:48:34.000Z,3.30
2018-10-03T18:51:01.616Z,3.00
2018-10-03T18:53:29.284Z,4.80
2018-10-03T18:55:56.904Z,3.40
2018-10-03T18:58:24.610Z,1.40
2018-10-03T19:00:52.309Z,3.10
2018-10-03T19:03:19.950Z,3.30
2018-10-03T19:05:47.669Z,2.27
2018-10-03T19:08:15.460Z,2.07
2018-10-03T19:10:43.016Z,2.13
2018-10-03T19:13:10.638Z,2.13
2018-10-03T19:15:38.252Z,3.57
2018-10-03T19:18:05.986Z,3.13
2018-10-03T19:20:33.925Z,2.00
2018-10-03T19:23:01.623Z,3.43
2018-10-03T19:25:29.236Z,3.03
2018-10-03T19:27:56.847Z,10.13
2018-10-03T19:30:24.530Z,1.77
2018-10-03T19:32:52.202Z,1.70
2018-10-03T19:35:19.861Z,3.37
2018-10-03T19:37:48.369Z,3.00
2018-10-03T19:40:16.160Z,3.90
2018-10-03T19:42:43.863Z,3.17
2018-10-03T19:45:11.423Z,3.97
2018-10-03T19:47:39.064Z,3.97
2018-10-03T19:50:06.691Z,2.93
2018-10-03T19:52:34.331Z,5.20
2018-10-03T19:55:01.935Z,4.20
2018-10-03T19:57:29.596Z,1.50
2018-10-03T19:59:57.283Z,3.27
2018-10-03T20:02:24.933Z,5.00
2018-10-03T20:04:52.545Z,2.33
2018-10-03T20:07:20.109Z,2.93
2018-10-03T20:09:47.770Z,4.93
2018-10-03T20:12:15.427Z,3.20
2018-10-03T20:14:42.999Z,1.40
2018-10-03T20:17:10.595Z,1.60
2018-10-03T20:19:38.277Z,3.50
2018-10-03T20:22:08.903Z,4.63
2018-10-03T20:24:36.796Z,4.87
2018-10-03T20:27:04.467Z,2.17
2018-10-03T20:29:32.163Z,6.27
2018-10-03T20:31:59.824Z,3.60
2018-10-03T20:34:27.462Z,3.83
2018-10-03T20:36:55.036Z,2.80
2018-10-03T20:39:22.623Z,2.60
2018-10-03T20:41:50.352Z,4.50
2018-10-03T20:44:17.962Z,2.77
2018-10-03T20:46:45.580Z,2.30
2018-10-03T20:49:13.216Z,4.43
2018-10-03T20:51:40.796Z,4.33
2018-10-03T20:54:08.418Z,2.30
2018-10-03T20:56:35.993Z,5.73
2018-10-03T20:59:03.685Z,3.13
2018-10-03T21:01:31.337Z,3.60
2018-10-03T21:03:58.931Z,3.03
2018-10-03T21:06:26.612Z,2.10
2018-10-03T21:08:54.247Z,2.60
2018-10-03T21:11:21.887Z,4.50
2018-10-03T21:13:49.547Z,3.53
2018-10-03T21:16:17.164Z,2.40
2018-10-03T21:18:44.755Z,2.33
2018-10-03T21:21:12.375Z,4.03
2018-10-03T21:23:39.983Z,2.77
2018-10-03T21:26:07.622Z,2.03
2018-10-03T21:28:35.222Z,4.37
2018-10-03T21:31:02.885Z,3.70
2018-10-03T21:33:30.491Z,2.20
2018-10-03T21:35:58.068Z,2.33
2018-10-03T21:38:25.716Z,4.47
2018-10-03T21:40:53.316Z,4.23
2018-10-03T21:43:20.888Z,2.33
2018-10-03T21:45:48.578Z,2.90
2018-10-03T21:48:16.252Z,3.60
2018-10-03T21:50:43.787Z,4.10
2018-10-03T21:53:11.378Z,2.37
2018-10-03T21:55:38.992Z,4.17
2018-10-03T21:58:06.675Z,3.60
2018-10-03T22:00:39.781Z,4.47
2018-10-03T22:03:07.437Z,3.30
2018-10-03T22:05:35.060Z,2.40
2018-10-03T22:08:02.641Z,2.60
2018-10-03T22:10:30.302Z,3.63
2018-10-03T22:12:57.876Z,4.40
2018-10-03T22:15:25.560Z,2.97
2018-10-03T22:17:53.165Z,2.90
2018-10-03T22:20:20.815Z,2.33
2018-10-03T22:22:48.537Z,2.60
2018-10-03T22:25:16.071Z,6.47
2018-10-03T22:27:43.655Z,3.00
2018-10-03T22:30:11.274Z,2.43
2018-10-03T22:32:38.911Z,3.27
2018-10-03T22:35:06.520Z,2.23
2018-10-03T22:37:34.170Z,1.63
2018-10-03T22:40:01.743Z,3.37
2018-10-03T22:42:29.334Z,3.13
2018-10-03T22:44:56.977Z,3.73
2018-10-03T22:47:24.599Z,4.70
2018-10-03T22:49:52.221Z,2.93
2018-10-03T22:52:19.883Z,1.97
2018-10-03T22:54:47.535Z,3.00
2018-10-03T22:57:15.147Z,4.90
2018-10-03T22:59:42.837Z,5.20
2018-10-03T23:02:10.417Z,4.23
2018-10-03T23:04:38.120Z,3.20
2018-10-03T23:07:05.710Z,1.40
2018-10-03T23:09:33.327Z,4.07
2018-10-03T23:12:00.924Z,4.53
2018-10-03T23:14:28.521Z,2.83
2018-10-03T23:16:56.102Z,3.63
2018-10-03T23:19:23.697Z,3.00
2018-10-03T23:21:51.320Z,4.43
2018-10-03T23:24:18.909Z,3.53
2018-10-03T23:26:46.612Z,2.83
2018-10-03T23:29:14.183Z,4.07
2018-10-03T23:31:41.843Z,4.87
2018-10-03T23:34:09.484Z,6.23
2018-10-03T23:36:37.112Z,4.40
2018-10-03T23:39:07.423Z,3.00
2018-10-03T23:41:35.109Z,2.77
2018-10-03T23:44:02.705Z,2.67
2018-10-03T23:46:30.331Z,1.93
2018-10-03T23:48:57.972Z,4.30
2018-10-03T23:51:25.561Z,5.70
2018-10-03T23:53:53.136Z,2.50
2018-10-03T23:56:20.775Z,2.60
2018-10-03T23:58:48.385Z,3.30
